Time;durP1;ratioP1;P1;durP2;ratioP2;P2;SDS_P1;SDS_P2;PMS_P1;PMS_P2;Temp;Humidity;BMP_temperature;BMP_pressure;BME280_temperature;BME280_humidity;BME280_pressure;Samples;Min_cycle;Max_cycle;Signal;HPM_P1;HPM_P2
2023/06/09 00:00:38;;;;;;;10.02;4.80;;;20.10;1.00;;;;;;5059383;28;20183;-70
2023/06/09 00:03:05;;;;;;;12.35;5.20;;;20.20;1.00;;;;;;5042586;28;20040;-70
2023/06/09 00:05:34;;;;;;;9.57;4.75;;;20.20;1.00;;;;;;5059701;28;20090;-70
2023/06/09 00:08:01;;;;;;;6.68;4.47;;;20.20;1.00;;;;;;5059656;28;20033;-71
2023/06/09 00:10:27;;;;;;;9.85;4.20;;;20.10;1.00;;;;;;5059845;28;20025;-70
2023/06/09 00:12:54;;;;;;;10.65;4.68;;;19.90;1.00;;;;;;5059632;28;20040;-70
2023/06/09 00:15:21;;;;;;;13.55;4.88;;;20.00;1.00;;;;;;5059663;28;20108;-70
2023/06/09 00:17:47;;;;;;;7.00;4.28;;;20.00;1.00;;;;;;5059806;28;20021;-71
2023/06/09 00:20:14;;;;;;;12.02;4.53;;;20.00;1.00;;;;;;5059554;28;20094;-70
2023/06/09 00:22:44;;;;;;;6.40;4.28;;;19.90;1.00;;;;;;5059774;28;20045;-70
2023/06/09 00:25:15;;;;;;;12.07;4.60;;;19.90;1.00;;;;;;5059622;28;20120;-70
2023/06/09 00:27:43;;;;;;;7.20;4.22;;;19.90;1.00;;;;;;5058589;28;20052;-70
2023/06/09 00:30:10;;;;;;;9.85;4.25;;;19.80;1.00;;;;;;5025832;28;20356;-71
2023/06/09 00:32:36;;;;;;;7.50;4.07;;;19.70;1.00;;;;;;5059122;28;20107;-70
2023/06/09 00:35:04;;;;;;;7.43;4.32;;;19.60;1.00;;;;;;5059416;28;20121;-70
2023/06/09 00:37:30;;;;;;;7.35;4.28;;;19.70;1.00;;;;;;5059179;28;20094;-70
2023/06/09 00:39:57;;;;;;;7.97;4.00;;;19.70;1.00;;;;;;5059218;28;20390;-70
2023/06/09 00:42:24;;;;;;;7.68;4.18;;;19.70;1.00;;;;;;5058091;28;20092;-69
2023/06/09 00:44:49;;;;;;;10.13;4.82;;;19.70;1.00;;;;;;5059198;28;20032;-70
2023/06/09 00:47:16;;;;;;;7.95;4.25;;;19.50;1.00;;;;;;5059469;28;20047;-70
2023/06/09 00:49:43;;;;;;;10.98;4.05;;;19.50;1.00;;;;;;5058991;28;20029;-70
2023/06/09 00:52:10;;;;;;;13.32;4.85;;;19.50;1.00;;;;;;5041569;28;20103;-70
2023/06/09 00:54:37;;;;;;;9.07;3.75;;;19.40;1.00;;;;;;5059259;28;20029;-70
2023/06/09 00:57:05;;;;;;;7.75;4.53;;;19.50;1.00;;;;;;5058188;28;20343;-70
2023/06/09 00:59:36;;;;;;;9.90;4.05;;;19.50;1.00;;;;;;5058739;28;20029;-71
2023/06/09 01:02:04;;;;;;;8.63;3.90;;;19.40;1.00;;;;;;5058828;28;20029;-71
2023/06/09 01:04:35;;;;;;;5.07;3.80;;;19.30;1.00;;;;;;5058097;28;20040;-70
2023/06/09 01:07:23;;;;;;;9.32;4.55;;;19.30;1.00;;;;;;5041423;28;20055;-70
2023/06/09 01:09:57;;;;;;;6.97;4.22;;;19.40;1.00;;;;;;5058891;28;20021;-70
2023/06/09 01:13:03;;;;;;;6.90;3.97;;;19.30;1.00;;;;;;5059008;28;20059;-71
2023/06/09 01:15:38;;;;;;;8.13;4.07;;;19.30;1.00;;;;;;5050402;28;20033;-70
2023/06/09 01:18:08;;;;;;;4.43;3.75;;;19.20;1.00;;;;;;5058551;28;20094;-70
2023/06/09 01:20:53;;;;;;;8.10;4.03;;;19.20;1.00;;;;;;5057729;28;20112;-71
2023/06/09 01:23:31;;;;;;;10.77;4.05;;;19.10;1.00;;;;;;5057768;28;20044;-71
2023/06/09 01:25:59;;;;;;;7.05;4.00;;;19.10;1.00;;;;;;5040982;28;20139;-71
2023/06/09 01:28:26;;;;;;;8.65;5.00;;;19.10;1.00;;;;;;5057344;28;20339;-70
2023/06/09 01:30:54;;;;;;;8.98;3.78;;;19.10;1.00;;;;;;5057457;28;20044;-71
2023/06/09 01:33:24;;;;;;;9.80;4.05;;;19.20;1.00;;;;;;5058417;28;20112;-70
2023/06/09 01:35:51;;;;;;;7.22;4.28;;;19.10;1.00;;;;;;5058103;28;20032;-70
2023/06/09 01:38:22;;;;;;;6.55;3.75;;;19.10;1.00;;;;;;5058024;28;20037;-71
2023/06/09 01:40:48;;;;;;;6.45;3.90;;;19.10;1.00;;;;;;5057816;28;20060;-70
2023/06/09 01:43:15;;;;;;;10.48;4.20;;;19.10;1.00;;;;;;5041153;28;20079;-70
2023/06/09 01:45:40;;;;;;;9.07;3.85;;;19.00;1.00;;;;;;5040711;28;20036;-71
2023/06/09 01:48:26;;;;;;;9.77;4.32;;;18.90;1.00;;;;;;5057546;28;20083;-70
2023/06/09 01:50:59;;;;;;;7.68;4.50;;;18.90;1.00;;;;;;5057936;28;20025;-70
2023/06/09 01:53:36;;;;;;;10.95;4.10;;;18.90;1.00;;;;;;5057151;28;20029;-70
2023/06/09 01:56:17;;;;;;;8.13;4.05;;;19.00;1.00;;;;;;5057210;28;20308;-71
2023/06/09 01:58:46;;;;;;;7.80;4.10;;;18.90;1.00;;;;;;5040466;28;20025;-71
2023/06/09 02:01:16;;;;;;;6.47;4.20;;;19.00;1.00;;;;;;5056941;28;20051;-71
2023/06/09 02:03:45;;;;;;;9.68;4.18;;;18.90;1.00;;;;;;5058051;28;20288;-70
2023/06/09 02:06:12;;;;;;;10.40;4.38;;;18.80;1.00;;;;;;5057029;28;20351;-70
2023/06/09 02:08:39;;;;;;;9.70;3.90;;;18.70;1.00;;;;;;5056889;28;20021;-70
2023/06/09 02:11:06;;;;;;;7.55;4.53;;;18.60;1.00;;;;;;5056794;28;20373;-70
2023/06/09 02:13:31;;;;;;;8.95;4.45;;;18.70;1.00;;;;;;5040237;28;20132;-71
2023/06/09 02:15:57;;;;;;;9.20;4.68;;;18.60;1.00;;;;;;5058069;28;20107;-70
2023/06/09 02:18:24;;;;;;;11.40;4.38;;;18.60;1.00;;;;;;5056699;28;20094;-70
2023/06/09 02:20:50;;;;;;;6.75;3.97;;;18.50;1.00;;;;;;5056047;28;20401;-71
2023/06/09 02:23:19;;;;;;;8.90;4.40;;;18.50;1.00;;;;;;5057230;28;20033;-70
2023/06/09 02:25:46;;;;;;;7.47;4.45;;;18.50;1.00;;;;;;5057209;28;20025;-71
2023/06/09 02:28:14;;;;;;;8.90;4.25;;;18.40;1.00;;;;;;5057125;28;20319;-71
2023/06/09 02:30:41;;;;;;;6.40;4.10;;;18.40;1.00;;;;;;5057321;28;20411;-70
2023/06/09 02:33:07;;;;;;;8.77;4.53;;;18.40;1.00;;;;;;5023753;28;20101;-70
2023/06/09 02:35:34;;;;;;;12.30;5.10;;;18.30;1.00;;;;;;5039904;28;20112;-70
2023/06/09 02:38:05;;;;;;;6.60;4.28;;;18.30;1.00;;;;;;5056423;28;20056;-71
2023/06/09 02:40:32;;;;;;;8.45;4.22;;;18.30;1.00;;;;;;5056204;28;20032;-70
2023/06/09 02:42:59;;;;;;;8.15;4.45;;;18.30;1.00;;;;;;5039872;28;20028;-70
2023/06/09 02:45:26;;;;;;;6.35;3.92;;;18.20;1.00;;;;;;5056981;28;20301;-70
2023/06/09 02:47:52;;;;;;;7.22;4.35;;;18.10;1.00;;;;;;5056199;28;20033;-70
2023/06/09 02:50:19;;;;;;;13.20;4.20;;;18.10;1.00;;;;;;5056314;28;20029;-70
2023/06/09 02:52:48;;;;;;;8.55;4.45;;;18.10;1.00;;;;;;5056481;28;20033;-70
2023/06/09 02:55:18;;;;;;;9.13;4.45;;;18.10;1.00;;;;;;5056996;28;20056;-71
2023/06/09 02:57:47;;;;;;;11.45;4.75;;;18.00;1.00;;;;;;5056078;28;20052;-70
2023/06/09 03:00:14;;;;;;;13.75;5.00;;;18.10;1.00;;;;;;5056030;28;20044;-70
2023/06/09 03:02:42;;;;;;;11.23;4.38;;;18.00;1.00;;;;;;5056553;28;20064;-70
2023/06/09 03:05:09;;;;;;;10.60;4.78;;;18.00;1.00;;;;;;5056049;28;20364;-70
2023/06/09 03:07:36;;;;;;;8.68;4.88;;;17.80;1.00;;;;;;5055878;28;20418;-70
2023/06/09 03:10:04;;;;;;;11.32;5.00;;;17.80;1.00;;;;;;5056153;28;20025;-70
2023/06/09 03:12:33;;;;;;;9.95;4.63;;;17.80;1.00;;;;;;5040277;28;20462;-70
2023/06/09 03:14:59;;;;;;;8.23;4.38;;;17.80;1.00;;;;;;5039512;28;20029;-70
2023/06/09 03:17:25;;;;;;;11.55;4.93;;;17.90;1.00;;;;;;5056857;28;20032;-70
2023/06/09 03:19:51;;;;;;;11.05;4.95;;;17.90;1.00;;;;;;5056698;28;20048;-70
2023/06/09 03:22:18;;;;;;;10.95;4.95;;;18.00;1.00;;;;;;5055964;28;20470;-70
2023/06/09 03:24:44;;;;;;;10.98;4.80;;;17.90;1.00;;;;;;5056688;28;20116;-70
2023/06/09 03:27:11;;;;;;;10.48;4.70;;;17.80;1.00;;;;;;5055705;28;20099;-70
2023/06/09 03:29:37;;;;;;;9.95;4.75;;;17.80;1.00;;;;;;5055867;28;20033;-70
2023/06/09 03:32:03;;;;;;;8.38;4.65;;;17.80;1.00;;;;;;5024762;28;20022;-69
2023/06/09 03:34:29;;;;;;;9.38;4.82;;;17.70;1.00;;;;;;5043151;28;20091;-69
2023/06/09 03:36:58;;;;;;;10.10;4.93;;;17.80;1.00;;;;;;5059954;28;20434;-70
2023/06/09 03:39:24;;;;;;;9.05;4.85;;;17.70;1.00;;;;;;5026708;28;20037;-70
2023/06/09 03:41:54;;;;;;;11.10;4.68;;;17.60;1.00;;;;;;5060137;28;20063;-70
2023/06/09 03:44:21;;;;;;;8.00;4.65;;;17.60;1.00;;;;;;5043516;28;20029;-70
2023/06/09 03:46:48;;;;;;;10.98;4.55;;;17.60;1.00;;;;;;5060237;28;20071;-70
2023/06/09 03:49:13;;;;;;;12.05;4.55;;;17.50;1.00;;;;;;5059291;28;20056;-70
2023/06/09 03:51:40;;;;;;;9.07;4.25;;;17.60;1.00;;;;;;5059517;28;20351;-70
2023/06/09 03:54:06;;;;;;;10.10;4.82;;;17.60;1.00;;;;;;5059466;28;20033;-70
2023/06/09 03:56:33;;;;;;;7.88;4.43;;;17.60;1.00;;;;;;5060046;28;20032;-70
2023/06/09 03:58:59;;;;;;;13.52;4.90;;;17.50;1.00;;;;;;5059349;28;20320;-70
2023/06/09 04:01:25;;;;;;;9.07;4.68;;;17.50;1.00;;;;;;5042758;28;20036;-70
2023/06/09 04:03:51;;;;;;;10.25;4.70;;;17.30;1.00;;;;;;5042675;28;20396;-70
2023/06/09 04:06:18;;;;;;;17.15;5.55;;;17.30;1.00;;;;;;5042692;28;20040;-70
2023/06/09 04:08:44;;;;;;;11.48;5.40;;;17.40;1.00;;;;;;5042508;28;20033;-70
2023/06/09 04:11:11;;;;;;;10.63;4.60;;;17.40;1.00;;;;;;5059033;28;20106;-70
2023/06/09 04:13:38;;;;;;;15.65;5.40;;;17.40;1.00;;;;;;5059174;28;20029;-70
2023/06/09 04:16:05;;;;;;;12.35;5.32;;;17.40;1.00;;;;;;5042427;28;20033;-71
2023/06/09 04:18:31;;;;;;;6.95;5.05;;;17.40;1.00;;;;;;5042355;28;20044;-70
2023/06/09 04:20:57;;;;;;;14.90;5.30;;;17.40;1.00;;;;;;5059065;28;20056;-70
2023/06/09 04:23:27;;;;;;;9.38;5.43;;;17.40;1.00;;;;;;5059651;28;20118;-70
2023/06/09 04:25:53;;;;;;;10.73;4.70;;;17.50;1.00;;;;;;5042173;28;20036;-70
2023/06/09 04:28:19;;;;;;;8.27;5.10;;;17.50;1.00;;;;;;5042113;28;20348;-70
2023/06/09 04:30:50;;;;;;;15.82;5.00;;;17.40;1.00;;;;;;5058761;28;20033;-70
2023/06/09 04:33:16;;;;;;;15.45;5.72;;;17.40;1.00;;;;;;5042261;28;20047;-70
2023/06/09 04:35:43;;;;;;;19.20;5.60;;;17.30;1.00;;;;;;5058475;28;20021;-70
2023/06/09 04:38:12;;;;;;;19.02;5.88;;;17.30;1.00;;;;;;5042512;28;20036;-70
2023/06/09 04:40:39;;;;;;;13.38;5.70;;;17.30;1.00;;;;;;5058138;28;20045;-70
2023/06/09 04:43:07;;;;;;;18.80;5.43;;;17.30;1.00;;;;;;5057896;28;20291;-71
2023/06/09 04:45:34;;;;;;;16.80;5.65;;;17.40;1.00;;;;;;5058292;28;20086;-70
2023/06/09 04:48:07;;;;;;;12.43;5.10;;;17.40;1.00;;;;;;5058208;28;20067;-71
2023/06/09 04:50:34;;;;;;;8.43;5.20;;;17.40;1.00;;;;;;5058834;28;20471;-70
2023/06/09 04:53:07;;;;;;;11.68;5.13;;;17.40;1.00;;;;;;5058132;28;20025;-71
2023/06/09 04:55:36;;;;;;;12.13;5.60;;;17.50;1.00;;;;;;5058239;28;20025;-71
2023/06/09 04:58:04;;;;;;;9.00;5.65;;;17.60;1.00;;;;;;5058094;28;20308;-71
2023/06/09 05:00:30;;;;;;;13.88;6.00;;;17.60;1.00;;;;;;5057913;28;20033;-71
2023/06/09 05:02:59;;;;;;;11.73;5.72;;;17.70;1.00;;;;;;5058759;28;20308;-71
2023/06/09 05:05:25;;;;;;;15.63;6.30;;;17.70;1.00;;;;;;5057920;28;20029;-71
2023/06/09 05:07:52;;;;;;;9.43;5.97;;;17.80;1.00;;;;;;5025027;28;20412;-71
2023/06/09 05:10:20;;;;;;;11.25;5.75;;;17.80;1.00;;;;;;5057682;28;20397;-71
2023/06/09 05:12:48;;;;;;;8.40;5.57;;;17.60;1.00;;;;;;5057929;28;20116;-71
2023/06/09 05:15:14;;;;;;;10.90;5.65;;;17.80;1.00;;;;;;5057724;28;20044;-71
2023/06/09 05:17:42;;;;;;;9.65;5.78;;;17.90;1.00;;;;;;5041407;28;20032;-71
2023/06/09 05:20:10;;;;;;;10.70;6.38;;;18.00;1.00;;;;;;5057911;28;20099;-70
2023/06/09 05:22:36;;;;;;;10.20;6.25;;;18.10;1.00;;;;;;5057675;28;20033;-70
2023/06/09 05:25:08;;;;;;;7.63;5.28;;;18.10;1.00;;;;;;5058630;28;20039;-71
2023/06/09 05:27:34;;;;;;;11.57;6.40;;;18.20;1.00;;;;;;5040786;28;20033;-71
2023/06/09 05:30:01;;;;;;;9.20;5.95;;;18.30;1.00;;;;;;5041106;28;20043;-71
2023/06/09 05:32:28;;;;;;;10.73;6.25;;;18.50;1.00;;;;;;5040981;28;20328;-71
2023/06/09 05:34:54;;;;;;;15.25;6.28;;;18.50;1.00;;;;;;5057431;28;20115;-71
2023/06/09 05:37:20;;;;;;;16.88;6.45;;;18.60;1.00;;;;;;5040917;28;20063;-71
2023/06/09 05:39:47;;;;;;;13.13;6.70;;;18.70;1.00;;;;;;5057427;28;20029;-72
2023/06/09 05:42:13;;;;;;;11.23;6.13;;;18.80;1.00;;;;;;5058454;28;20057;-70
2023/06/09 05:44:39;;;;;;;11.80;6.57;;;18.70;1.00;;;;;;5041430;28;20037;-70
2023/06/09 05:47:06;;;;;;;14.38;6.72;;;18.80;1.00;;;;;;5041826;28;20171;-70
2023/06/09 05:49:33;;;;;;;12.82;7.05;;;18.90;1.00;;;;;;5058918;28;20028;-70
2023/06/09 05:52:04;;;;;;;11.90;6.95;;;18.80;1.00;;;;;;5042185;28;20132;-70
2023/06/09 05:54:30;;;;;;;9.38;6.68;;;18.80;1.00;;;;;;5057748;28;20033;-71
2023/06/09 05:56:55;;;;;;;12.20;6.78;;;18.90;1.00;;;;;;5057839;28;20033;-71
2023/06/09 05:59:23;;;;;;;8.93;6.57;;;19.10;1.00;;;;;;5024702;28;20059;-71
2023/06/09 06:01:49;;;;;;;11.13;6.80;;;19.20;1.00;;;;;;5057481;28;20037;-71
2023/06/09 06:04:15;;;;;;;11.15;6.63;;;19.50;1.00;;;;;;5057835;28;20277;-71
2023/06/09 06:06:43;;;;;;;11.13;7.30;;;19.50;1.00;;;;;;5057832;28;20090;-71
2023/06/09 06:09:08;;;;;;;12.90;7.40;;;19.40;1.00;;;;;;5056806;28;20113;-71
2023/06/09 06:11:34;;;;;;;11.68;7.43;;;19.40;1.00;;;;;;5058163;28;20325;-72
2023/06/09 06:14:00;;;;;;;12.70;7.07;;;19.50;1.00;;;;;;5056995;28;20043;-71
2023/06/09 06:16:26;;;;;;;10.38;7.90;;;19.50;1.00;;;;;;5057906;28;20021;-71
2023/06/09 06:18:52;;;;;;;11.32;7.40;;;19.50;1.00;;;;;;5057368;28;20044;-71
2023/06/09 06:21:18;;;;;;;11.23;8.13;;;19.60;1.00;;;;;;5040854;28;20131;-72
2023/06/09 06:23:44;;;;;;;13.38;8.23;;;19.70;1.00;;;;;;5058663;28;20270;-72
2023/06/09 06:26:10;;;;;;;12.88;7.45;;;19.80;1.00;;;;;;5057676;28;20044;-72
2023/06/09 06:28:36;;;;;;;14.18;7.35;;;20.00;1.00;;;;;;5056839;28;20112;-72
2023/06/09 06:31:05;;;;;;;10.30;7.80;;;20.10;1.00;;;;;;5057729;28;20029;-73
2023/06/09 06:33:31;;;;;;;9.50;7.53;;;20.10;1.00;;;;;;5056262;28;20044;-72
2023/06/09 06:35:58;;;;;;;13.43;7.82;;;20.10;1.00;;;;;;5057287;28;20048;-73
2023/06/09 06:38:24;;;;;;;10.95;7.95;;;20.10;1.00;;;;;;5056400;28;20076;-73
2023/06/09 06:40:50;;;;;;;11.02;8.13;;;20.20;1.00;;;;;;5056182;28;20072;-72
2023/06/09 06:43:16;;;;;;;14.00;8.38;;;20.20;1.00;;;;;;5057358;28;20056;-72
2023/06/09 06:46:09;;;;;;;12.38;8.57;;;20.30;1.00;;;;;;5056977;28;20037;-71
2023/06/09 06:48:38;;;;;;;11.52;8.50;;;20.30;1.00;;;;;;5056943;28;20033;-73
2023/06/09 06:51:07;;;;;;;11.48;8.43;;;20.40;1.00;;;;;;5057387;28;20308;-73
2023/06/09 06:53:35;;;;;;;16.02;8.05;;;20.40;1.00;;;;;;5039931;28;20029;-73
2023/06/09 06:56:01;;;;;;;12.70;8.18;;;20.50;1.00;;;;;;5056055;28;20308;-73
2023/06/09 06:58:28;;;;;;;12.20;9.07;;;20.70;1.00;;;;;;5056768;28;20117;-73
2023/06/09 07:00:55;;;;;;;12.48;8.20;;;20.70;1.00;;;;;;5057050;28;20083;-73
2023/06/09 07:03:23;;;;;;;12.15;7.97;;;20.70;1.00;;;;;;5039384;28;20033;-73
2023/06/09 07:05:50;;;;;;;11.45;8.38;;;20.80;1.00;;;;;;5057298;28;20075;-73
2023/06/09 07:08:16;;;;;;;12.68;9.30;;;21.00;1.00;;;;;;5060364;28;20277;-73
2023/06/09 07:10:42;;;;;;;14.77;8.13;;;21.10;1.00;;;;;;5060273;28;20044;-73
2023/06/09 07:13:07;;;;;;;10.13;8.00;;;21.20;1.00;;;;;;5060031;28;20033;-73
2023/06/09 07:15:36;;;;;;;12.27;8.32;;;21.30;1.00;;;;;;5060765;28;20040;-72
2023/06/09 07:18:03;;;;;;;10.93;8.30;;;21.10;1.00;;;;;;5060271;28;20331;-73
2023/06/09 07:20:29;;;;;;;9.27;8.13;;;21.00;1.00;;;;;;5043324;28;20037;-73
2023/06/09 07:22:55;;;;;;;12.38;7.22;;;21.20;1.00;;;;;;5059757;28;20300;-74
2023/06/09 07:25:20;;;;;;;12.60;8.40;;;21.30;1.00;;;;;;5060742;28;20404;-74
2023/06/09 07:27:46;;;;;;;11.52;8.10;;;21.40;1.00;;;;;;5060580;28;20063;-73
2023/06/09 07:30:13;;;;;;;10.77;8.10;;;21.50;1.00;;;;;;5060594;28;20384;-73
2023/06/09 07:32:41;;;;;;;16.48;8.10;;;21.70;1.00;;;;;;5060445;28;20036;-75
2023/06/09 07:35:12;;;;;;;13.23;8.23;;;21.80;1.00;;;;;;5060506;28;20037;-73
2023/06/09 07:37:42;;;;;;;10.45;7.97;;;21.90;1.00;;;;;;5060631;28;20051;-72
2023/06/09 07:40:09;;;;;;;11.70;8.60;;;22.00;1.00;;;;;;5060419;28;20112;-72
2023/06/09 07:42:36;;;;;;;10.80;8.30;;;22.00;1.00;;;;;;5060444;28;20151;-74
2023/06/09 07:45:01;;;;;;;14.52;8.38;;;22.10;1.00;;;;;;5043119;28;20029;-73
2023/06/09 07:47:27;;;;;;;10.10;7.65;;;22.00;1.00;;;;;;5060164;28;20029;-73
2023/06/09 07:49:53;;;;;;;8.60;7.70;;;22.10;1.00;;;;;;5059708;28;20063;-74
2023/06/09 07:52:19;;;;;;;11.02;7.53;;;22.00;1.00;;;;;;5059849;28;20374;-72
2023/06/09 07:54:45;;;;;;;15.63;7.80;;;22.20;1.00;;;;;;5058706;28;20021;-72
2023/06/09 07:57:10;;;;;;;11.98;7.70;;;22.30;1.00;;;;;;5058677;28;20167;-74
2023/06/09 07:59:36;;;;;;;13.73;8.23;;;22.50;1.00;;;;;;5042190;28;20190;-73
2023/06/09 08:02:02;;;;;;;11.02;7.80;;;22.50;1.00;;;;;;5059367;28;20117;-72
2023/06/09 08:04:29;;;;;;;10.82;7.40;;;22.60;1.00;;;;;;5059526;28;20029;-72
2023/06/09 08:06:58;;;;;;;8.65;7.45;;;22.70;99.90;;;;;;5042693;28;20033;-71
2023/06/09 08:09:25;;;;;;;9.10;7.20;;;22.80;99.90;;;;;;5060093;28;20144;-71
2023/06/09 08:11:51;;;;;;;9.73;6.93;;;22.80;99.90;;;;;;5059773;28;20039;-72
2023/06/09 08:14:17;;;;;;;13.50;7.15;;;22.90;99.90;;;;;;5059759;28;20109;-72
2023/06/09 08:16:44;;;;;;;8.55;6.10;;;23.00;99.90;;;;;;5059096;28;20067;-72
2023/06/09 08:19:10;;;;;;;12.15;6.95;;;23.30;99.90;;;;;;5059242;28;20036;-73
2023/06/09 08:21:48;;;;;;;10.38;5.78;;;23.40;99.90;;;;;;5058739;28;20195;-73
2023/06/09 08:24:14;;;;;;;7.10;6.00;;;23.50;99.90;;;;;;5059243;28;20037;-73
2023/06/09 08:26:41;;;;;;;8.48;6.40;;;23.60;1.00;;;;;;5058670;28;20045;-74
2023/06/09 08:29:07;;;;;;;7.95;5.78;;;23.70;1.00;;;;;;5059016;28;20470;-73
2023/06/09 08:31:36;;;;;;;9.75;6.18;;;23.90;1.00;;;;;;5059187;28;20047;-73
2023/06/09 08:34:02;;;;;;;10.90;6.55;;;23.90;1.00;;;;;;5059241;28;20037;-73
2023/06/09 08:36:28;;;;;;;5.55;4.78;;;23.90;1.00;;;;;;5058769;28;20412;-73
2023/06/09 08:38:54;;;;;;;8.45;5.75;;;24.00;1.00;;;;;;5059314;28;20305;-76
2023/06/09 08:41:24;;;;;;;7.32;6.00;;;24.10;1.00;;;;;;5058282;28;20057;-73
2023/06/09 08:43:52;;;;;;;6.53;5.70;;;24.30;99.90;;;;;;5058240;28;20423;-72
2023/06/09 08:46:20;;;;;;;7.45;5.93;;;24.20;99.90;;;;;;5056958;28;20395;-72
2023/06/09 08:48:56;;;;;;;8.43;6.30;;;24.30;99.90;;;;;;5057580;28;20033;-72
2023/06/09 08:51:23;;;;;;;9.00;6.28;;;24.30;1.00;;;;;;5057137;28;20132;-74
2023/06/09 08:53:54;;;;;;;8.63;6.18;;;24.30;99.90;;;;;;5056979;28;20182;-74
2023/06/09 08:56:22;;;;;;;7.55;6.60;;;24.20;99.90;;;;;;5057159;28;20093;-74
2023/06/09 08:58:48;;;;;;;9.63;6.50;;;24.30;1.00;;;;;;5056979;28;20124;-73
2023/06/09 09:01:18;;;;;;;10.60;6.25;;;24.50;58.90;;;;;;5058649;28;20047;-73
2023/06/09 09:03:47;;;;;;;8.13;5.60;;;24.60;1.00;;;;;;5058612;28;20415;-73
2023/06/09 09:06:14;;;;;;;9.20;6.05;;;24.80;80.10;;;;;;5058489;28;20111;-74
2023/06/09 09:08:40;;;;;;;8.90;5.57;;;24.90;1.00;;;;;;5058630;28;20030;-72
2023/06/09 09:11:06;;;;;;;6.65;5.60;;;25.00;99.90;;;;;;5058786;28;20048;-74
2023/06/09 18:08:06;;;;;;;10.50;8.70;;;40.50;1.00;;;;;;5135835;27;20115;-72
2023/06/09 18:10:32;;;;;;;10.60;6.47;;;39.80;1.00;;;;;;5135736;28;20031;-72
2023/06/09 18:12:58;;;;;;;12.90;11.52;;;39.10;1.00;;;;;;5135445;28;20035;-73
2023/06/09 18:15:24;;;;;;;5.65;5.15;;;38.90;1.00;;;;;;5135385;28;20110;-72
2023/06/09 18:17:49;;;;;;;6.50;5.90;;;37.80;1.00;;;;;;5135338;28;20057;-71
2023/06/09 18:20:15;;;;;;;7.28;6.40;;;37.40;1.00;;;;;;5117504;28;20062;-73
2023/06/09 18:22:43;;;;;;;14.90;13.45;;;36.20;1.00;;;;;;5117429;28;20344;-73
2023/06/09 18:25:08;;;;;;;4.97;4.43;;;35.00;1.00;;;;;;5135677;28;20031;-75
2023/06/09 18:27:35;;;;;;;7.15;4.22;;;34.40;1.00;;;;;;5100369;28;20039;-72
2023/06/09 18:30:01;;;;;;;5.03;4.53;;;33.70;1.00;;;;;;5134425;27;20406;-72
2023/06/09 18:32:30;;;;;;;40.78;29.75;;;33.20;1.00;;;;;;5116996;28;20032;-71
2023/06/09 18:34:58;;;;;;;7.78;7.07;;;33.20;1.00;;;;;;5134839;28;20031;-72
2023/06/09 18:37:24;;;;;;;8.80;6.85;;;33.40;1.00;;;;;;5117685;28;20130;-72
2023/06/09 18:39:50;;;;;;;7.30;6.53;;;33.70;1.00;;;;;;5134863;28;20421;-71
2023/06/09 18:42:16;;;;;;;5.13;4.55;;;33.50;1.00;;;;;;5134957;28;20343;-72
2023/06/09 18:44:42;;;;;;;6.55;4.88;;;32.90;1.00;;;;;;5134841;28;20031;-70
2023/06/09 18:47:08;;;;;;;6.63;5.95;;;32.40;1.00;;;;;;5134660;28;20110;-70
2023/06/09 18:49:37;;;;;;;4.70;4.28;;;32.00;1.00;;;;;;5134832;28;20172;-72
2023/06/09 18:52:03;;;;;;;8.98;6.70;;;31.70;1.00;;;;;;5134635;28;20113;-72
2023/06/09 18:54:29;;;;;;;8.43;7.60;;;31.40;1.00;;;;;;5134581;28;20028;-73
2023/06/09 18:56:55;;;;;;;5.50;4.32;;;31.30;1.00;;;;;;5117199;28;20031;-73
2023/06/09 18:59:21;;;;;;;6.20;5.60;;;31.00;1.00;;;;;;5134647;28;20038;-71
2023/06/09 19:01:47;;;;;;;8.77;5.32;;;30.70;1.00;;;;;;5116710;28;20050;-71
2023/06/09 19:04:12;;;;;;;10.35;7.32;;;30.50;1.00;;;;;;5116825;28;20031;-73
2023/06/09 19:06:40;;;;;;;11.40;9.30;;;30.40;1.00;;;;;;5134367;28;20059;-73
2023/06/09 19:09:06;;;;;;;10.35;7.47;;;30.30;1.00;;;;;;5134447;28;20077;-73
2023/06/09 19:11:32;;;;;;;10.93;8.52;;;30.10;1.00;;;;;;5134353;28;20039;-74
2023/06/09 19:13:57;;;;;;;8.95;7.90;;;30.00;1.00;;;;;;5134224;28;20028;-73
2023/06/09 19:16:23;;;;;;;9.02;7.05;;;30.00;1.00;;;;;;5116821;28;20049;-72
2023/06/09 19:18:50;;;;;;;7.43;6.72;;;29.80;1.00;;;;;;5124438;28;20395;-74
2023/06/09 19:21:18;;;;;;;6.43;5.90;;;29.80;1.00;;;;;;5103571;28;20051;-73
2023/06/09 19:23:44;;;;;;;4.03;3.72;;;29.70;1.00;;;;;;5103675;28;20039;-73
2023/06/09 19:26:10;;;;;;;4.30;3.90;;;29.60;1.00;;;;;;5102685;28;20042;-73
2023/06/09 19:28:36;;;;;;;5.15;4.75;;;29.50;1.00;;;;;;5102834;28;20028;-73
2023/06/09 19:31:02;;;;;;;21.67;15.10;;;29.40;1.00;;;;;;5120325;28;20103;-74
2023/06/09 19:33:28;;;;;;;72.00;47.78;;;29.20;1.00;;;;;;5120220;28;20324;-74
2023/06/09 19:35:53;;;;;;;16.83;10.68;;;29.10;1.00;;;;;;5102624;28;20422;-74
2023/06/09 19:38:19;;;;;;;9.23;6.55;;;29.00;1.00;;;;;;5120113;28;20024;-73
2023/06/09 19:40:45;;;;;;;10.88;7.93;;;29.00;1.00;;;;;;5120150;28;20062;-74
2023/06/09 19:43:12;;;;;;;7.50;6.72;;;28.90;1.00;;;;;;5119904;28;20127;-73
2023/06/09 19:45:37;;;;;;;8.52;5.78;;;28.70;1.00;;;;;;5102017;28;20302;-75
2023/06/09 19:48:03;;;;;;;10.55;7.95;;;28.50;1.00;;;;;;5120046;28;20032;-73
2023/06/09 19:50:36;;;;;;;8.00;6.85;;;28.40;1.00;;;;;;5102388;28;20104;-73
2023/06/09 19:53:03;;;;;;;6.68;5.40;;;28.30;1.00;;;;;;5119704;28;20032;-74
2023/06/09 19:55:29;;;;;;;6.25;5.65;;;28.20;1.00;;;;;;5119566;28;20032;-73
2023/06/09 19:57:55;;;;;;;11.68;8.80;;;28.10;1.00;;;;;;5119330;28;20035;-75
2023/06/09 20:00:22;;;;;;;8.90;6.43;;;28.00;1.00;;;;;;5102156;28;20342;-74
2023/06/09 20:02:48;;;;;;;8.18;5.35;;;27.90;1.00;;;;;;5119312;28;20140;-73
2023/06/09 20:05:14;;;;;;;7.88;5.05;;;27.70;1.00;;;;;;5101869;28;20110;-72
2023/06/09 20:07:41;;;;;;;9.32;6.82;;;27.60;1.00;;;;;;5101596;28;20128;-73
2023/06/09 20:10:07;;;;;;;7.30;6.22;;;27.60;1.00;;;;;;5119588;28;20031;-71
2023/06/09 20:12:33;;;;;;;6.65;6.03;;;27.40;1.00;;;;;;5119304;28;20032;-73
2023/06/09 20:14:59;;;;;;;5.35;4.85;;;27.30;1.00;;;;;;5119363;28;20106;-73
2023/06/09 20:17:26;;;;;;;9.93;5.60;;;27.30;1.00;;;;;;5119314;28;20047;-75
2023/06/09 20:19:52;;;;;;;10.75;5.70;;;27.30;1.00;;;;;;5119136;28;20035;-74
2023/06/09 20:22:18;;;;;;;7.15;6.40;;;27.30;1.00;;;;;;5101888;28;20118;-75
2023/06/09 20:24:44;;;;;;;8.32;6.05;;;27.30;1.00;;;;;;5119287;28;20024;-74
2023/06/09 20:27:10;;;;;;;8.60;5.57;;;27.10;1.00;;;;;;5101443;28;20439;-74
2023/06/09 20:29:37;;;;;;;9.98;7.65;;;27.00;1.00;;;;;;5118110;28;20020;-74
2023/06/09 20:32:04;;;;;;;8.50;7.30;;;26.90;1.00;;;;;;5101297;28;20023;-75
2023/06/09 20:34:30;;;;;;;6.65;5.75;;;26.80;1.00;;;;;;5118163;28;20027;-74
2023/06/09 20:36:57;;;;;;;10.27;7.75;;;26.70;1.00;;;;;;5084475;28;20038;-73
2023/06/09 20:39:23;;;;;;;12.25;7.43;;;26.60;1.00;;;;;;5101042;28;20036;-73
2023/06/09 20:41:50;;;;;;;7.93;7.10;;;26.70;13.20;;;;;;5118717;28;20414;-73
2023/06/09 20:44:16;;;;;;;8.02;5.97;;;26.70;60.10;;;;;;5100879;28;20053;-73
2023/06/09 20:46:43;;;;;;;10.18;7.43;;;26.70;99.90;;;;;;5101218;28;20096;-72
2023/06/09 20:49:09;;;;;;;8.32;5.20;;;26.60;99.90;;;;;;5117910;28;20031;-71
2023/06/09 20:51:36;;;;;;;6.35;5.85;;;26.50;99.90;;;;;;5118907;28;20031;-72
2023/06/09 20:54:02;;;;;;;6.78;6.18;;;26.30;99.90;;;;;;5118654;28;20276;-72
2023/06/09 20:56:29;;;;;;;9.38;7.25;;;26.20;99.90;;;;;;5101207;28;20051;-71
2023/06/09 20:58:55;;;;;;;7.03;5.93;;;26.30;99.90;;;;;;5083938;28;20039;-72
2023/06/09 21:01:21;;;;;;;6.30;5.60;;;26.30;99.90;;;;;;5117911;28;20347;-72
2023/06/09 21:03:47;;;;;;;7.70;6.70;;;26.20;1.00;;;;;;5118491;28;20031;-73
2023/06/09 21:06:19;;;;;;;8.27;6.57;;;26.10;1.00;;;;;;5100832;28;20047;-73
2023/06/09 21:08:46;;;;;;;;;;;26.00;1.00;;;;;;5101187;28;20023;-72
2023/06/09 21:11:12;;;;;;;7.93;6.15;;;25.90;1.00;;;;;;5118389;28;19923;-72
2023/06/09 21:13:38;;;;;;;10.00;6.35;;;25.90;1.00;;;;;;5100390;28;20028;-72
2023/06/09 21:16:04;;;;;;;14.68;6.80;;;25.80;1.00;;;;;;5100689;28;20399;-73
2023/06/09 21:18:31;;;;;;;11.38;7.60;;;25.80;1.00;;;;;;5118175;28;20398;-72
2023/06/09 21:20:57;;;;;;;7.10;6.32;;;25.80;99.90;;;;;;5100400;28;20376;-73
2023/06/09 21:23:23;;;;;;;7.95;6.13;;;25.80;99.90;;;;;;5100474;28;20028;-73
2023/06/09 21:25:49;;;;;;;7.18;6.30;;;25.70;99.90;;;;;;5100058;28;20321;-72
2023/06/09 21:28:18;;;;;;;11.05;6.35;;;25.60;99.90;;;;;;5118278;28;20372;-71
2023/06/09 21:30:45;;;;;;;8.82;7.18;;;25.50;1.00;;;;;;5100843;28;20035;-72
2023/06/09 21:33:11;;;;;;;8.50;6.80;;;25.50;1.00;;;;;;5083417;28;20028;-71
2023/06/09 21:35:37;;;;;;;7.72;7.00;;;25.40;1.00;;;;;;5117997;28;20028;-74
2023/06/09 21:38:06;;;;;;;11.80;7.55;;;25.30;1.00;;;;;;5100464;28;20040;-75
2023/06/09 21:40:33;;;;;;;14.80;8.50;;;25.40;1.00;;;;;;5100301;28;20055;-74
2023/06/09 21:42:59;;;;;;;9.25;7.57;;;25.40;1.00;;;;;;5100270;28;20272;-73
2023/06/09 21:45:26;;;;;;;7.00;6.30;;;25.40;2.90;;;;;;5117924;28;20091;-73